Terminal Aerodrome Forecast
Issued by NWS

Home | Current Version | Previous Version | Text Only | Print | Product List | Glossary On
Versions: 1 2 3 4 5 6 7 8 9 10 11 12 13 14 15 16 17 18 19 20 21 22 23 24 25 26 27 28 29 30 31 32
458
FTUS43 KGRR 231156 AAA
TAFMKG
TAF AMD
KMKG 231156Z 2312/2412 30008KT 1SM BR OVC002
     FM231400 32008KT 4SM BR OVC005
     FM231600 35009KT P6SM BKN015
     FM231900 01009KT P6SM FEW025 BKN150
     FM240500 05011KT 4SM -RA BR OVC025
     FM240700 06015KT 2SM -RA BR OVC004=

USA.gov is the U.S. government's official web portal to all federal, state and local government web resources and services.